Time;durP1;ratioP1;P1;durP2;ratioP2;P2;SDS_P1;SDS_P2;PMS_P1;PMS_P2;Temp;Humidity;BMP_temperature;BMP_pressure;BME280_temperature;BME280_humidity;BME280_pressure;Samples;Min_cycle;Max_cycle;Signal;HPM_P1;HPM_P2
2023/08/08 00:00:52;;;;;;;17.42;15.52;;;12.10;99.90;;;;;;4964440;28;20493;-72
2023/08/08 00:03:19;;;;;;;16.52;14.77;;;12.10;99.90;;;;;;4974766;28;20137;-72
2023/08/08 00:05:46;;;;;;;17.75;15.93;;;12.10;99.90;;;;;;4971218;28;20753;-75
2023/08/08 00:08:13;;;;;;;22.63;16.10;;;12.10;99.90;;;;;;4964169;28;20054;-74
2023/08/08 00:10:39;;;;;;;17.23;14.93;;;12.10;99.90;;;;;;4966415;28;20353;-72
2023/08/08 00:13:06;;;;;;;19.55;16.90;;;12.00;99.90;;;;;;4983575;28;20045;-72
2023/08/08 00:15:33;;;;;;;18.63;16.67;;;12.10;99.90;;;;;;4968326;28;20468;-74
2023/08/08 00:18:00;;;;;;;19.10;16.38;;;12.10;99.90;;;;;;4970966;28;20125;-72
2023/08/08 00:20:27;;;;;;;18.20;16.25;;;12.00;99.90;;;;;;4966015;28;20038;-74
2023/08/08 00:22:53;;;;;;;19.33;15.75;;;12.10;99.90;;;;;;4970603;28;20545;-74
2023/08/08 00:25:20;;;;;;;18.52;16.15;;;12.10;99.90;;;;;;4971627;28;20051;-74
2023/08/08 00:27:49;;;;;;;19.20;16.55;;;12.10;99.90;;;;;;4965448;28;20421;-72
2023/08/08 00:30:16;;;;;;;18.02;16.10;;;12.10;99.90;;;;;;4968247;28;20077;-72
2023/08/08 00:32:45;;;;;;;17.95;15.65;;;12.10;99.90;;;;;;4969760;28;20109;-73
2023/08/08 00:35:12;;;;;;;18.48;16.48;;;12.10;99.90;;;;;;4973361;28;20112;-74
2023/08/08 00:37:39;;;;;;;17.40;15.60;;;12.10;99.90;;;;;;4963051;28;20594;-72
2023/08/08 00:40:06;;;;;;;19.85;17.00;;;12.10;99.90;;;;;;4969923;28;20046;-73
2023/08/08 00:42:32;;;;;;;17.13;15.32;;;12.10;99.90;;;;;;4964795;28;20105;-73
2023/08/08 00:45:03;;;;;;;19.27;15.13;;;12.20;99.90;;;;;;4966856;28;20105;-72
2023/08/08 00:47:32;;;;;;;16.67;14.55;;;12.20;99.90;;;;;;4987824;28;20062;-73
2023/08/08 00:50:02;;;;;;;17.70;15.25;;;12.20;99.90;;;;;;4971255;28;20046;-72
2023/08/08 00:52:30;;;;;;;17.10;14.15;;;12.20;99.90;;;;;;4983215;28;20066;-72
2023/08/08 00:54:59;;;;;;;16.23;14.82;;;12.20;99.90;;;;;;4969206;28;20057;-73
2023/08/08 00:57:26;;;;;;;16.73;15.07;;;12.30;99.90;;;;;;4972622;28;20042;-73
2023/08/08 00:59:53;;;;;;;15.35;13.85;;;12.30;99.90;;;;;;4966617;28;20050;-72
2023/08/08 01:02:20;;;;;;;15.10;13.70;;;12.30;99.90;;;;;;4974889;28;20537;-74
2023/08/08 01:04:47;;;;;;;18.85;13.98;;;12.30;99.90;;;;;;4966455;28;20050;-73
2023/08/08 01:07:43;;;;;;;16.90;15.20;;;12.40;99.90;;;;;;4984758;28;20082;-72
2023/08/08 01:10:15;;;;;;;15.40;13.82;;;12.40;99.90;;;;;;4975408;28;20046;-72
2023/08/08 01:12:48;;;;;;;15.75;14.18;;;12.40;99.90;;;;;;4966629;28;20108;-73
2023/08/08 01:15:15;;;;;;;14.50;12.88;;;12.40;99.90;;;;;;4973873;28;20472;-72
2023/08/08 01:17:44;;;;;;;15.13;13.90;;;12.50;99.90;;;;;;4967245;28;20049;-72
2023/08/08 01:20:14;;;;;;;14.13;13.05;;;12.50;99.90;;;;;;4981922;28;20165;-72
2023/08/08 01:23:11;;;;;;;14.77;13.43;;;12.50;99.90;;;;;;4970916;28;20461;-72
2023/08/08 01:25:40;;;;;;;15.20;13.70;;;12.60;99.90;;;;;;4973580;28;20050;-72
2023/08/08 01:28:07;;;;;;;14.38;13.27;;;12.60;99.90;;;;;;4972892;28;20077;-72
2023/08/08 01:30:34;;;;;;;15.00;13.80;;;12.60;99.90;;;;;;4962263;28;20042;-72
2023/08/08 01:33:02;;;;;;;14.63;13.40;;;12.60;99.90;;;;;;4975108;28;20115;-73
2023/08/08 01:35:32;;;;;;;14.90;13.77;;;12.60;99.90;;;;;;4989499;28;22163;-74
2023/08/08 01:38:20;;;;;;;14.80;13.60;;;12.60;99.90;;;;;;4970447;28;20141;-74
2023/08/08 01:40:47;;;;;;;16.35;13.77;;;12.60;99.90;;;;;;4984366;28;20062;-72
2023/08/08 01:43:16;;;;;;;14.02;12.70;;;12.60;99.90;;;;;;4974301;28;20738;-74
2023/08/08 01:45:43;;;;;;;13.63;12.63;;;12.60;99.90;;;;;;4973087;28;20034;-73
2023/08/08 01:48:10;;;;;;;13.20;11.90;;;12.60;99.90;;;;;;4976020;28;20042;-74
2023/08/08 01:50:38;;;;;;;11.65;10.45;;;12.60;99.90;;;;;;4973826;28;20050;-73
2023/08/08 01:53:04;;;;;;;12.27;11.00;;;12.50;99.90;;;;;;4972241;28;20043;-72
2023/08/08 01:55:31;;;;;;;11.43;9.55;;;12.50;99.90;;;;;;4976531;28;20141;-72
2023/08/08 01:57:58;;;;;;;10.48;9.40;;;12.40;99.90;;;;;;4957554;28;20050;-72
2023/08/08 02:00:25;;;;;;;13.32;9.23;;;12.40;99.90;;;;;;4973786;28;20050;-72
2023/08/08 02:02:52;;;;;;;10.82;8.85;;;12.30;99.90;;;;;;4966482;28;20046;-73
2023/08/08 02:05:20;;;;;;;8.75;7.80;;;12.20;99.90;;;;;;4990304;28;20121;-70
2023/08/08 02:07:46;;;;;;;7.95;7.25;;;12.10;99.90;;;;;;4969964;28;20433;-70
2023/08/08 02:10:13;;;;;;;10.82;8.07;;;12.00;99.90;;;;;;4972318;28;20046;-70
2023/08/08 02:12:40;;;;;;;9.35;7.78;;;12.00;99.90;;;;;;4971099;28;20505;-72
2023/08/08 02:15:07;;;;;;;7.90;6.65;;;11.80;99.90;;;;;;4970683;28;20061;-71
2023/08/08 02:17:35;;;;;;;8.80;6.78;;;11.80;99.90;;;;;;4976511;28;20085;-71
2023/08/08 02:20:03;;;;;;;7.38;6.22;;;11.70;99.90;;;;;;4965068;28;20093;-71
2023/08/08 02:22:30;;;;;;;7.97;5.85;;;11.70;99.90;;;;;;4974096;28;20069;-71
2023/08/08 02:24:56;;;;;;;10.07;7.10;;;11.70;99.90;;;;;;4985164;28;20049;-70
2023/08/08 02:27:23;;;;;;;13.82;7.78;;;11.70;99.90;;;;;;4970217;28;20055;-70
2023/08/08 02:29:50;;;;;;;12.05;7.15;;;11.60;99.90;;;;;;4962494;28;20043;-71
2023/08/08 02:32:16;;;;;;;8.32;6.57;;;11.60;99.90;;;;;;4974700;28;20046;-71
2023/08/08 02:34:44;;;;;;;9.38;7.07;;;11.60;99.90;;;;;;4972796;28;20655;-71
2023/08/08 02:37:12;;;;;;;12.32;9.00;;;11.60;99.90;;;;;;4972894;28;21917;-71
2023/08/08 02:39:40;;;;;;;10.18;8.20;;;11.50;99.90;;;;;;4969526;28;20098;-70
2023/08/08 02:42:07;;;;;;;12.63;8.98;;;11.50;99.90;;;;;;4981387;28;20030;-70
2023/08/08 02:44:34;;;;;;;13.38;9.52;;;11.50;99.90;;;;;;4972278;28;20490;-70
2023/08/08 02:47:01;;;;;;;13.77;10.13;;;11.50;99.90;;;;;;4984944;28;20043;-70
2023/08/08 02:49:28;;;;;;;11.52;8.85;;;11.40;99.90;;;;;;4971366;28;20593;-70
2023/08/08 02:51:55;;;;;;;13.60;8.80;;;11.40;99.90;;;;;;4970711;28;20526;-70
2023/08/08 02:54:24;;;;;;;17.88;9.63;;;11.40;99.90;;;;;;4975715;28;20038;-70
2023/08/08 02:56:51;;;;;;;12.57;8.05;;;11.30;99.90;;;;;;4970781;28;20042;-70
2023/08/08 02:59:17;;;;;;;11.57;8.38;;;11.30;99.90;;;;;;4977429;28;20056;-70
2023/08/08 03:01:45;;;;;;;11.48;8.55;;;11.30;99.90;;;;;;4998015;28;20034;-70
2023/08/08 03:04:16;;;;;;;13.23;8.77;;;11.30;99.90;;;;;;5000541;28;20296;-70
2023/08/08 03:06:44;;;;;;;10.05;7.80;;;11.30;99.90;;;;;;4973131;28;20050;-70
2023/08/08 03:09:11;;;;;;;11.57;8.38;;;11.30;99.90;;;;;;4968437;28;20043;-70
2023/08/08 03:11:41;;;;;;;9.50;7.45;;;11.30;99.90;;;;;;4969005;28;20118;-71
2023/08/08 03:14:09;;;;;;;12.15;8.68;;;11.30;99.90;;;;;;4971117;28;20108;-70
2023/08/08 03:16:37;;;;;;;10.57;7.07;;;11.30;99.90;;;;;;4973670;28;20043;-70
2023/08/08 03:19:06;;;;;;;13.85;8.15;;;11.30;99.90;;;;;;4960539;28;20049;-70
2023/08/08 03:21:33;;;;;;;11.25;8.23;;;11.30;99.90;;;;;;4951695;28;20039;-71
2023/08/08 03:24:02;;;;;;;10.15;8.43;;;11.30;99.90;;;;;;4974359;28;20504;-71
2023/08/08 03:26:29;;;;;;;10.90;8.73;;;11.20;99.90;;;;;;4973991;28;20042;-70
2023/08/08 03:28:55;;;;;;;13.35;10.30;;;11.10;99.90;;;;;;4965074;28;20079;-71
2023/08/08 03:31:30;;;;;;;13.52;10.75;;;11.10;99.90;;;;;;4975459;28;20153;-72
2023/08/08 03:33:56;;;;;;;13.63;10.85;;;11.00;99.90;;;;;;4970539;28;20061;-70
2023/08/08 03:36:23;;;;;;;14.85;12.07;;;11.00;99.90;;;;;;4968295;28;20136;-70
2023/08/08 03:38:50;;;;;;;15.13;13.15;;;11.00;99.90;;;;;;4968949;28;20042;-70
2023/08/08 03:41:17;;;;;;;19.35;14.88;;;11.00;99.90;;;;;;4971946;28;20045;-70
2023/08/08 03:43:43;;;;;;;21.17;15.45;;;10.90;99.90;;;;;;4952729;28;20086;-70
2023/08/08 03:46:11;;;;;;;18.80;14.82;;;10.90;99.90;;;;;;4971321;28;20066;-69
2023/08/08 03:48:39;;;;;;;16.67;14.90;;;10.90;99.90;;;;;;4957407;28;20060;-70
2023/08/08 03:51:06;;;;;;;18.08;14.20;;;11.00;99.90;;;;;;4968381;28;20054;-70
2023/08/08 03:53:33;;;;;;;16.10;13.82;;;11.00;99.90;;;;;;4974237;28;20034;-70
2023/08/08 03:56:00;;;;;;;17.27;13.32;;;11.00;99.90;;;;;;4968355;28;20042;-70
2023/08/08 03:58:27;;;;;;;16.83;13.05;;;11.10;99.90;;;;;;4985989;28;20435;-70
2023/08/08 04:00:53;;;;;;;19.90;13.68;;;11.20;99.90;;;;;;4966642;28;20035;-70
2023/08/08 04:03:20;;;;;;;18.42;13.48;;;11.20;99.90;;;;;;4957729;28;20436;-70
2023/08/08 04:05:48;;;;;;;19.05;12.65;;;11.30;99.90;;;;;;4976163;28;20050;-70
2023/08/08 04:08:15;;;;;;;16.58;12.80;;;11.30;99.90;;;;;;4985697;28;20138;-70
2023/08/08 04:10:43;;;;;;;20.77;12.82;;;11.30;99.90;;;;;;4964080;28;20045;-70
2023/08/08 04:13:10;;;;;;;18.73;11.82;;;11.40;99.90;;;;;;4955510;28;20050;-71
2023/08/08 04:15:37;;;;;;;22.40;13.45;;;11.40;99.90;;;;;;4970895;28;20053;-70
2023/08/08 04:18:06;;;;;;;15.18;10.65;;;11.50;99.90;;;;;;4969349;28;20543;-71
2023/08/08 04:20:34;;;;;;;16.73;11.82;;;11.60;99.90;;;;;;4967082;28;20038;-71
2023/08/08 04:23:00;;;;;;;14.63;11.50;;;11.60;99.90;;;;;;4969165;28;20046;-71
2023/08/08 04:25:28;;;;;;;15.80;11.55;;;11.70;99.90;;;;;;4972077;28;20210;-71
2023/08/08 04:27:55;;;;;;;12.88;9.88;;;11.70;99.90;;;;;;4969448;28;20034;-72
2023/08/08 04:30:23;;;;;;;13.60;9.80;;;11.70;99.90;;;;;;4972572;28;22036;-70
2023/08/08 04:32:50;;;;;;;15.05;9.70;;;11.80;99.90;;;;;;4963736;28;20037;-70
2023/08/08 04:35:17;;;;;;;14.10;10.15;;;11.80;99.90;;;;;;4971264;28;20054;-70
2023/08/08 04:37:43;;;;;;;13.15;10.07;;;11.80;99.90;;;;;;4971432;28;20035;-71
2023/08/08 04:40:11;;;;;;;15.57;9.52;;;11.80;99.90;;;;;;4964224;28;20054;-70
2023/08/08 04:42:38;;;;;;;13.98;9.10;;;11.80;99.90;;;;;;4964773;28;20568;-71
2023/08/08 04:45:05;;;;;;;13.35;9.65;;;11.80;99.90;;;;;;4968282;28;20034;-70
2023/08/08 04:47:32;;;;;;;15.48;9.38;;;11.70;99.90;;;;;;4987185;28;20038;-71
2023/08/08 04:49:59;;;;;;;19.88;8.68;;;11.70;99.90;;;;;;4966118;28;20078;-70
2023/08/08 04:52:25;;;;;;;13.13;8.35;;;11.70;99.90;;;;;;4973122;28;20627;-71
2023/08/08 04:54:52;;;;;;;14.60;8.27;;;11.70;99.90;;;;;;4969119;28;20323;-71
2023/08/08 04:57:19;;;;;;;13.27;8.77;;;11.70;99.90;;;;;;4971248;28;20097;-71
2023/08/08 04:59:46;;;;;;;10.65;8.43;;;11.70;99.90;;;;;;4968904;28;20043;-70
2023/08/08 05:02:13;;;;;;;12.88;9.20;;;11.70;99.90;;;;;;4966793;28;22379;-71
2023/08/08 05:04:39;;;;;;;12.60;8.80;;;11.80;99.90;;;;;;4970841;28;20050;-71
2023/08/08 05:07:06;;;;;;;12.13;8.20;;;11.90;99.90;;;;;;4947479;28;20276;-71
2023/08/08 05:09:33;;;;;;;11.45;9.27;;;11.90;99.90;;;;;;4964981;28;20620;-71
2023/08/08 05:12:00;;;;;;;12.82;8.80;;;12.00;99.90;;;;;;4977350;28;20042;-71
2023/08/08 05:14:27;;;;;;;15.98;9.75;;;12.00;99.90;;;;;;4970454;28;20049;-71
2023/08/08 05:16:54;;;;;;;14.13;8.85;;;12.10;99.90;;;;;;4970921;28;20101;-71
2023/08/08 05:19:21;;;;;;;13.88;9.68;;;12.10;99.90;;;;;;4960507;28;20124;-70
2023/08/08 05:21:47;;;;;;;16.50;9.77;;;12.10;99.90;;;;;;4969282;28;20316;-71
2023/08/08 05:24:16;;;;;;;12.63;9.90;;;12.10;99.90;;;;;;4968509;28;20108;-71
2023/08/08 05:26:42;;;;;;;21.38;9.85;;;12.10;99.90;;;;;;4971913;28;20042;-71
2023/08/08 05:29:09;;;;;;;11.25;9.57;;;12.10;99.90;;;;;;4965537;28;20046;-72
2023/08/08 05:31:36;;;;;;;14.73;10.27;;;12.20;99.90;;;;;;4972789;28;20046;-71
2023/08/08 05:34:02;;;;;;;14.45;10.68;;;12.10;99.90;;;;;;4966468;28;20050;-71
2023/08/08 05:36:29;;;;;;;16.63;11.30;;;12.10;99.90;;;;;;4960701;28;20050;-71
2023/08/08 05:38:56;;;;;;;15.45;10.73;;;12.20;99.90;;;;;;4962975;28;20489;-71
2023/08/08 05:41:22;;;;;;;12.18;10.60;;;12.10;99.90;;;;;;4965227;28;20038;-71
2023/08/08 05:43:50;;;;;;;17.40;12.25;;;12.20;99.90;;;;;;4970676;28;20035;-71
2023/08/08 05:46:16;;;;;;;17.40;11.27;;;12.20;99.90;;;;;;4969903;28;20077;-71
2023/08/08 05:48:43;;;;;;;16.85;10.32;;;12.20;99.90;;;;;;4972055;28;20050;-71
2023/08/08 05:51:12;;;;;;;12.85;9.27;;;12.20;99.90;;;;;;4962281;28;20153;-71
2023/08/08 05:53:38;;;;;;;15.68;11.18;;;12.20;99.90;;;;;;4970005;28;20480;-71
2023/08/08 05:56:05;;;;;;;14.93;11.02;;;12.20;99.90;;;;;;4966457;28;20576;-73
2023/08/08 05:58:32;;;;;;;14.48;10.25;;;12.20;99.90;;;;;;4973897;28;20042;-71
2023/08/08 06:00:59;;;;;;;17.13;12.13;;;12.20;99.90;;;;;;4962690;28;20043;-71
2023/08/08 06:03:26;;;;;;;16.67;11.70;;;12.20;99.90;;;;;;4985508;28;20070;-71
2023/08/08 06:05:53;;;;;;;17.88;11.27;;;12.30;99.90;;;;;;4970582;28;20041;-71
2023/08/08 06:08:19;;;;;;;15.10;11.77;;;12.30;99.90;;;;;;4966898;28;20046;-71
2023/08/08 06:10:46;;;;;;;17.67;11.90;;;12.40;99.90;;;;;;4964940;28;20360;-71
2023/08/08 06:13:13;;;;;;;18.15;11.52;;;12.50;99.90;;;;;;4971861;28;20054;-71
2023/08/08 06:15:39;;;;;;;13.70;11.13;;;12.40;99.90;;;;;;4975062;28;20070;-71
2023/08/08 06:18:06;;;;;;;16.70;11.05;;;12.50;99.90;;;;;;4965542;28;20039;-72
2023/08/08 06:20:33;;;;;;;13.60;10.65;;;12.50;99.90;;;;;;4972072;28;20061;-71
2023/08/08 06:23:00;;;;;;;17.63;11.18;;;12.50;99.90;;;;;;4971845;28;20038;-71
2023/08/08 06:25:28;;;;;;;12.75;10.10;;;12.60;99.90;;;;;;4976552;28;20046;-71
2023/08/08 06:27:55;;;;;;;13.32;10.15;;;12.60;99.90;;;;;;4968167;28;20051;-72
2023/08/08 06:30:21;;;;;;;14.10;10.35;;;12.60;99.90;;;;;;4974364;28;20058;-71
2023/08/08 06:32:48;;;;;;;20.00;11.77;;;12.70;99.90;;;;;;4975524;28;20150;-72
2023/08/08 06:35:16;;;;;;;19.55;11.73;;;12.60;99.90;;;;;;4965728;28;20129;-71
2023/08/08 06:37:43;;;;;;;13.82;11.40;;;12.70;99.90;;;;;;4974298;28;20198;-71
2023/08/08 06:40:11;;;;;;;15.18;11.27;;;12.70;99.90;;;;;;4970103;28;20057;-71
2023/08/08 06:42:37;;;;;;;20.50;12.35;;;12.80;99.90;;;;;;4971562;28;20066;-72
2023/08/08 06:45:06;;;;;;;19.30;13.50;;;12.70;99.90;;;;;;4969297;28;20050;-71
2023/08/08 06:47:33;;;;;;;21.35;14.43;;;12.80;99.90;;;;;;4967630;28;20058;-72
2023/08/08 06:50:00;;;;;;;22.63;14.30;;;12.80;99.90;;;;;;4970881;28;20142;-72
2023/08/08 06:52:27;;;;;;;23.30;16.38;;;12.80;99.90;;;;;;4975736;28;20619;-72
2023/08/08 06:54:53;;;;;;;25.63;16.45;;;12.90;99.90;;;;;;4973482;28;20046;-73
2023/08/08 06:57:20;;;;;;;21.58;15.30;;;12.90;99.90;;;;;;4962630;28;21007;-72
2023/08/08 06:59:50;;;;;;;25.25;15.85;;;12.90;99.90;;;;;;4976316;28;20128;-72
2023/08/08 07:02:19;;;;;;;23.90;15.07;;;13.00;99.90;;;;;;4964847;28;21127;-72
2023/08/08 07:04:45;;;;;;;27.13;16.38;;;13.10;99.90;;;;;;4972418;28;20093;-72
2023/08/08 07:07:12;;;;;;;24.10;16.75;;;13.10;99.90;;;;;;4976744;28;20046;-72
2023/08/08 07:09:39;;;;;;;23.75;16.55;;;13.10;99.90;;;;;;4973109;28;20050;-72
2023/08/08 07:12:06;;;;;;;28.58;18.10;;;13.20;99.90;;;;;;4966239;28;20101;-72
2023/08/08 07:14:33;;;;;;;20.35;17.08;;;13.20;99.90;;;;;;4970820;28;20111;-72
2023/08/08 07:16:59;;;;;;;22.83;17.65;;;13.30;99.90;;;;;;4956522;28;20098;-72
2023/08/08 07:19:26;;;;;;;26.48;19.65;;;13.40;99.90;;;;;;4979515;28;20047;-73
2023/08/08 07:21:53;;;;;;;24.65;18.55;;;13.60;99.90;;;;;;4969761;28;20126;-72
2023/08/08 07:24:20;;;;;;;26.80;19.13;;;13.60;99.90;;;;;;4973148;28;20412;-72
2023/08/08 07:26:48;;;;;;;22.70;17.38;;;13.60;99.90;;;;;;4973776;28;20118;-71
2023/08/08 07:29:15;;;;;;;26.75;19.92;;;13.60;99.90;;;;;;4954961;28;20046;-72
2023/08/08 07:31:41;;;;;;;28.30;20.95;;;13.60;99.90;;;;;;4968372;28;20043;-73
2023/08/08 07:34:08;;;;;;;33.28;21.45;;;13.50;99.90;;;;;;4971248;28;20047;-72
2023/08/08 07:36:35;;;;;;;25.45;19.08;;;13.50;99.90;;;;;;4977552;28;20042;-74
2023/08/08 07:39:02;;;;;;;22.33;19.63;;;13.60;99.90;;;;;;4970803;28;20042;-74
2023/08/08 07:41:30;;;;;;;34.03;23.80;;;13.60;99.90;;;;;;4971132;28;20042;-72
2023/08/08 07:43:56;;;;;;;31.52;20.10;;;13.60;99.90;;;;;;4968296;28;20660;-74
2023/08/08 07:46:23;;;;;;;25.75;19.52;;;13.60;99.90;;;;;;4966791;28;20112;-73
2023/08/08 07:48:50;;;;;;;27.92;21.95;;;13.70;99.90;;;;;;4989571;28;20112;-72
2023/08/08 07:51:17;;;;;;;25.75;20.75;;;13.70;99.90;;;;;;4993886;28;20051;-72
2023/08/08 07:53:44;;;;;;;26.98;21.25;;;13.80;99.90;;;;;;4998566;28;20038;-73
2023/08/08 07:56:13;;;;;;;28.98;22.85;;;13.90;99.90;;;;;;4969987;28;20050;-74
2023/08/08 07:58:39;;;;;;;33.10;23.38;;;14.00;99.90;;;;;;4974798;28;20051;-74
2023/08/08 08:01:06;;;;;;;27.40;23.02;;;14.00;99.90;;;;;;4967395;28;20038;-74
2023/08/08 08:03:34;;;;;;;26.65;23.33;;;14.20;99.90;;;;;;4975146;28;20057;-74
2023/08/08 08:06:00;;;;;;;26.10;22.42;;;14.40;99.90;;;;;;4971173;28;20070;-74
2023/08/08 08:08:27;;;;;;;28.65;24.90;;;14.50;99.90;;;;;;4970058;28;20112;-74
2023/08/08 08:10:54;;;;;;;30.63;24.83;;;14.50;99.90;;;;;;4955996;28;20079;-74
2023/08/08 08:13:21;;;;;;;28.15;25.35;;;14.50;99.90;;;;;;4968262;28;20068;-74
2023/08/08 08:15:47;;;;;;;28.30;24.10;;;14.40;99.90;;;;;;4976231;28;20042;-73
2023/08/08 08:18:16;;;;;;;28.65;23.23;;;14.30;99.90;;;;;;4965693;28;20092;-73
2023/08/08 08:20:45;;;;;;;29.35;26.00;;;14.20;99.90;;;;;;4969676;28;20038;-74
2023/08/08 08:23:12;;;;;;;26.60;23.83;;;14.40;99.90;;;;;;4970154;28;20089;-74
2023/08/08 08:25:39;;;;;;;31.92;25.58;;;14.50;99.90;;;;;;4956611;28;20097;-75
2023/08/08 08:28:05;;;;;;;31.42;24.58;;;14.60;99.90;;;;;;4965130;28;20100;-75
2023/08/08 08:30:32;;;;;;;28.48;25.65;;;14.60;99.90;;;;;;4970440;28;20050;-74
2023/08/08 08:33:00;;;;;;;29.95;26.92;;;14.80;99.90;;;;;;4973214;28;20061;-75
2023/08/08 08:35:27;;;;;;;29.63;26.50;;;15.10;99.90;;;;;;4960616;28;20081;-73
2023/08/08 08:37:54;;;;;;;26.92;23.92;;;15.00;99.90;;;;;;4973938;28;20038;-74
2023/08/08 08:40:21;;;;;;;29.17;26.27;;;15.10;99.90;;;;;;4966332;28;20848;-74
2023/08/08 08:42:48;;;;;;;27.85;25.10;;;15.10;99.90;;;;;;4967033;28;20126;-73
2023/08/08 08:45:18;;;;;;;32.45;25.88;;;15.10;99.90;;;;;;4962368;28;20112;-74
2023/08/08 08:47:47;;;;;;;28.13;25.58;;;15.10;99.90;;;;;;4968475;28;20082;-72
2023/08/08 08:50:15;;;;;;;25.23;22.73;;;15.10;99.90;;;;;;4951235;28;20106;-73
2023/08/08 08:52:43;;;;;;;27.67;24.73;;;15.10;99.90;;;;;;4972416;28;20054;-73
2023/08/08 08:55:13;;;;;;;27.63;25.15;;;15.00;99.90;;;;;;4964152;28;20045;-73
2023/08/08 08:57:40;;;;;;;27.95;25.17;;;15.10;99.90;;;;;;4969405;28;20093;-73
2023/08/08 09:00:07;;;;;;;26.08;23.88;;;15.30;99.90;;;;;;4970481;28;20185;-72
2023/08/08 09:02:34;;;;;;;26.50;23.42;;;15.20;99.90;;;;;;4971693;28;20893;-73
2023/08/08 09:05:03;;;;;;;26.30;23.48;;;15.30;99.90;;;;;;4963980;28;20062;-73
2023/08/08 09:07:32;;;;;;;27.38;24.73;;;15.20;99.90;;;;;;4967542;28;20047;-72
2023/08/08 09:09:59;;;;;;;26.67;24.08;;;15.10;99.90;;;;;;4970875;28;20042;-72
2023/08/08 09:12:27;;;;;;;27.33;24.90;;;15.10;99.90;;;;;;4962247;28;20082;-72
2023/08/08 09:14:57;;;;;;;26.45;24.30;;;15.30;99.90;;;;;;4966180;28;20047;-72
2023/08/08 09:17:27;;;;;;;27.52;24.67;;;15.70;99.90;;;;;;4961976;28;20093;-72
2023/08/08 09:20:13;;;;;;;27.55;24.85;;;15.80;99.90;;;;;;4960597;28;20070;-73
2023/08/08 09:22:40;;;;;;;27.05;24.73;;;16.00;99.90;;;;;;4968567;28;20507;-72
2023/08/08 09:25:08;;;;;;;27.70;25.30;;;15.90;99.90;;;;;;4967418;28;20042;-71
2023/08/08 09:27:35;;;;;;;26.88;24.75;;;15.80;99.90;;;;;;4980847;28;20560;-72
2023/08/08 09:30:03;;;;;;;25.38;23.15;;;15.90;99.90;;;;;;4966870;28;20105;-73
2023/08/08 09:32:31;;;;;;;26.75;24.77;;;16.00;99.90;;;;;;4963889;28;21639;-73
2023/08/08 09:34:59;;;;;;;25.52;23.50;;;15.90;99.90;;;;;;4969453;28;20054;-73
2023/08/08 09:37:28;;;;;;;26.08;23.88;;;15.80;99.90;;;;;;4966494;28;20039;-73
2023/08/08 09:39:59;;;;;;;26.63;24.48;;;15.70;99.90;;;;;;4968902;28;20129;-73
2023/08/08 09:42:27;;;;;;;25.63;23.52;;;15.70;99.90;;;;;;4947659;28;20085;-73
2023/08/08 09:44:55;;;;;;;25.35;23.30;;;15.80;99.90;;;;;;4968918;28;20401;-73
2023/08/08 09:47:23;;;;;;;27.00;24.95;;;15.60;99.90;;;;;;4969115;28;20043;-74
2023/08/08 09:49:50;;;;;;;23.05;21.33;;;15.60;99.90;;;;;;4973820;28;20046;-73
2023/08/08 09:52:19;;;;;;;28.38;22.88;;;15.50;99.90;;;;;;4969101;28;20046;-74
2023/08/08 09:54:48;;;;;;;24.23;20.85;;;15.60;99.90;;;;;;4968146;28;20141;-73
2023/08/08 09:57:16;;;;;;;22.95;21.30;;;15.30;99.90;;;;;;4968629;28;20074;-73
2023/08/08 09:59:43;;;;;;;22.45;20.77;;;15.20;99.90;;;;;;4976215;28;20425;-73
2023/08/08 10:02:19;;;;;;;23.00;21.40;;;15.20;99.90;;;;;;4973038;28;20046;-73
2023/08/08 10:04:46;;;;;;;24.10;22.45;;;15.10;99.90;;;;;;4972225;28;20605;-74
2023/08/08 10:07:14;;;;;;;24.90;22.92;;;15.10;99.90;;;;;;4970016;28;20477;-70
2023/08/08 10:09:42;;;;;;;25.90;23.77;;;15.10;99.90;;;;;;4988744;28;20046;-74
2023/08/08 10:12:11;;;;;;;25.88;23.58;;;15.40;99.90;;;;;;4968854;28;20131;-71
2023/08/08 10:14:41;;;;;;;24.63;23.00;;;15.80;99.90;;;;;;4968460;28;20046;-73
2023/08/08 10:17:12;;;;;;;28.50;26.08;;;16.20;99.90;;;;;;4967113;28;20124;-73
2023/08/08 10:19:39;;;;;;;27.10;24.92;;;16.60;99.90;;;;;;4966465;28;20548;-73
2023/08/08 10:22:08;;;;;;;26.02;24.20;;;16.80;99.90;;;;;;4971488;28;20718;-73
2023/08/08 10:24:38;;;;;;;27.30;25.63;;;17.20;99.90;;;;;;4969133;28;20056;-73
2023/08/08 10:27:05;;;;;;;23.77;21.92;;;17.40;99.90;;;;;;4969680;28;20409;-73
2023/08/08 10:29:33;;;;;;;24.92;23.00;;;17.70;99.90;;;;;;4972863;28;20722;-73
2023/08/08 10:32:03;;;;;;;24.20;22.20;;;17.50;99.90;;;;;;4973489;28;20057;-73
2023/08/08 10:34:43;;;;;;;24.85;23.02;;;16.90;99.90;;;;;;4970363;28;20050;-72
2023/08/08 10:37:12;;;;;;;25.35;23.65;;;16.60;99.90;;;;;;4968469;28;20727;-73
2023/08/08 10:39:57;;;;;;;27.10;24.98;;;16.30;99.90;;;;;;4966855;28;20157;-73
2023/08/08 10:42:25;;;;;;;25.90;23.88;;;16.30;99.90;;;;;;4960785;28;20484;-72
2023/08/08 10:44:57;;;;;;;25.60;23.83;;;16.50;99.90;;;;;;4970045;28;20395;-73
2023/08/08 10:47:36;;;;;;;27.58;25.10;;;16.60;99.90;;;;;;4965852;28;20038;-72
2023/08/08 10:50:12;;;;;;;25.30;23.45;;;16.70;99.90;;;;;;4973218;28;20134;-73
2023/08/08 10:52:55;;;;;;;28.10;25.45;;;16.40;99.90;;;;;;4969823;28;20062;-72
2023/08/08 10:55:27;;;;;;;26.85;25.05;;;16.20;99.90;;;;;;4963056;28;20109;-72
2023/08/08 10:57:56;;;;;;;28.30;26.40;;;16.20;99.90;;;;;;4970270;28;20058;-73
2023/08/08 11:00:25;;;;;;;24.13;22.38;;;16.40;99.90;;;;;;4969816;28;20062;-72
2023/08/08 11:02:53;;;;;;;29.33;27.48;;;16.80;99.90;;;;;;4968760;28;20058;-73
2023/08/08 11:05:22;;;;;;;27.98;26.10;;;17.10;99.90;;;;;;4967867;28;20042;-73
2023/08/08 11:07:50;;;;;;;28.27;26.50;;;17.50;99.90;;;;;;4973963;28;20047;-73
2023/08/08 11:10:30;;;;;;;26.27;24.15;;;17.90;99.90;;;;;;4968690;28;20054;-73
2023/08/08 11:12:58;;;;;;;26.40;24.40;;;18.20;99.90;;;;;;4971228;28;20154;-73
2023/08/08 11:15:26;;;;;;;27.45;25.30;;;18.20;99.90;;;;;;4966920;28;20105;-72
2023/08/08 11:17:56;;;;;;;28.75;26.33;;;18.00;99.90;;;;;;4969950;28;20046;-72
2023/08/08 11:20:24;;;;;;;27.52;25.40;;;17.80;99.90;;;;;;4967226;28;20039;-73
2023/08/08 11:22:55;;;;;;;30.20;28.10;;;17.50;99.90;;;;;;4972455;28;20046;-72
2023/08/08 11:25:25;;;;;;;27.75;25.55;;;17.40;99.90;;;;;;4970380;28;20046;-73
2023/08/08 11:27:53;;;;;;;28.77;26.52;;;17.60;99.90;;;;;;4970322;28;20042;-72
2023/08/08 11:30:22;;;;;;;27.60;25.38;;;17.40;99.90;;;;;;4978783;28;20356;-72
2023/08/08 11:32:50;;;;;;;28.35;26.25;;;17.20;99.90;;;;;;4985411;28;20735;-72
2023/08/08 11:35:23;;;;;;;30.52;28.33;;;17.10;99.90;;;;;;4965614;28;20101;-73
2023/08/08 11:37:52;;;;;;;29.58;26.92;;;17.40;99.90;;;;;;4973067;28;20042;-73
2023/08/08 11:40:20;;;;;;;27.98;26.02;;;17.70;99.90;;;;;;4970372;28;20043;-72
2023/08/08 11:42:47;;;;;;;28.20;25.92;;;18.10;99.90;;;;;;4969473;28;20061;-73
2023/08/08 11:45:14;;;;;;;29.23;27.20;;;18.10;99.90;;;;;;4969512;28;20645;-73
2023/08/08 11:47:41;;;;;;;28.27;26.23;;;18.20;99.90;;;;;;4969597;28;20125;-72
2023/08/08 11:50:13;;;;;;;28.50;26.52;;;18.30;99.90;;;;;;4972660;28;20133;-72
2023/08/08 11:52:46;;;;;;;28.88;26.30;;;18.60;99.90;;;;;;4959968;28;20345;-72
2023/08/08 11:55:13;;;;;;;28.20;26.10;;;18.40;99.90;;;;;;4971876;28;20055;-72
2023/08/08 11:57:40;;;;;;;27.58;25.50;;;18.30;99.90;;;;;;4969142;28;20112;-73
2023/08/08 12:00:12;;;;;;;26.42;24.63;;;18.40;99.90;;;;;;4968982;28;20624;-73
2023/08/08 12:02:43;;;;;;;27.95;26.15;;;18.60;99.90;;;;;;4971769;28;20841;-72
2023/08/08 12:05:16;;;;;;;27.63;25.40;;;18.50;99.90;;;;;;4985127;28;20072;-72
2023/08/08 12:07:44;;;;;;;28.60;26.65;;;18.50;99.90;;;;;;4966416;28;20050;-72
2023/08/08 12:10:24;;;;;;;25.92;24.17;;;18.40;99.90;;;;;;4985074;28;20042;-73
2023/08/08 12:12:58;;;;;;;27.58;25.77;;;18.30;99.90;;;;;;4968880;28;20057;-72
2023/08/08 12:15:35;;;;;;;27.45;25.83;;;18.20;99.90;;;;;;4983366;28;20460;-72
2023/08/08 12:18:03;;;;;;;27.02;25.23;;;18.00;99.90;;;;;;4969697;28;20074;-73
2023/08/08 12:20:31;;;;;;;27.55;25.48;;;18.10;99.90;;;;;;4981773;28;20046;-72
2023/08/08 12:22:59;;;;;;;27.52;25.75;;;18.10;99.90;;;;;;4970288;28;20042;-73
2023/08/08 12:25:26;;;;;;;28.60;26.70;;;18.20;99.90;;;;;;4966442;28;20047;-71
2023/08/08 12:27:52;;;;;;;27.13;25.33;;;18.10;99.90;;;;;;4967746;28;20050;-71
2023/08/08 12:30:19;;;;;;;28.92;26.83;;;18.10;99.90;;;;;;4968864;28;20034;-72
2023/08/08 12:32:46;;;;;;;27.15;25.23;;;17.80;99.90;;;;;;4954852;28;20494;-72